Aviation Digital Data Service (ADDS)

Output produced by TAFs form (1545 UTC 25 June 2017)
found at http://aviationweather.gov/adds/tafs/
 
KTCC 251356Z 2514/2612 12006KT P6SM SCT015 OVC030 
     TEMPO 2514/2516 SCT007 BKN015 
     FM251600 14007KT P6SM FEW025 SCT035 
     FM252000 15008KT P6SM SCT040 
     FM252300 16010G18KT P6SM SCT040 BKN120 
     TEMPO 2603/2606 VRB20G35KT 4SM -TSRA OVC025CB 
     FM260700 13010KT P6SM FEW025 BKN040